Perry, Louisiana
Current Conditions -  °F | °C
As of 1:15 PM on Saturday 20 Dec 2014 (Local Time) from KIYA Reporting Station
Overcast Overcast  
Wind Chill:   Ceiling: 600
Heat Index: 10°   Visibility: 10mi
Dew Point:   Wind: 9mph
Humidity: 93%   Direction: 360°N
Pressure: 30.13"   Gusts: NA
Location:  29.95°N, 92.16°W
Report Text: KIYA 201915Z AUTO 36008KT 10SM OVC006 10/09 A3013 RMK AO2 T00990088 TSNO
Loading
Personal Weather Stations






























Interactive Weather Map New forecast layout! Learn more

10-Day Weather Forecast

Advertisements
Track Severe Weather on mobile